Time;durP1;ratioP1;P1;durP2;ratioP2;P2;SDS_P1;SDS_P2;PMS_P1;PMS_P2;Temp;Humidity;BMP_temperature;BMP_pressure;BME280_temperature;BME280_humidity;BME280_pressure;Samples;Min_cycle;Max_cycle;Signal;HPM_P1;HPM_P2
2023/07/12 03:01:32;;;;;;;;;;;17.20;99.90;;;;;;5532691;23;19960;-76
2023/07/12 03:03:57;;;;;;;;;;;17.30;99.90;;;;;;5034613;28;19917;-75
2023/07/12 03:06:23;;;;;;;;;;;17.20;99.90;;;;;;5036044;28;19917;-76
2023/07/12 03:08:49;;;;;;;;;;;17.20;99.90;;;;;;5036103;28;19916;-77
2023/07/12 03:11:15;;;;;;;;;;;17.20;99.90;;;;;;5034763;28;20291;-76
2023/07/12 03:13:40;;;;;;;;;;;17.20;99.90;;;;;;5017978;28;19916;-75
2023/07/12 03:16:07;;;;;;;;;;;17.20;99.90;;;;;;5035789;28;20279;-78
2023/07/12 03:18:33;;;;;;;;;;;17.20;99.90;;;;;;5034659;28;20323;-76
2023/07/12 03:21:03;;;;;;;;;;;17.20;99.90;;;;;;5034662;28;19921;-76
2023/07/12 03:23:28;;;;;;;;;;;17.20;99.90;;;;;;5034566;28;20272;-77
2023/07/12 03:25:54;;;;;;;;;;;17.20;99.90;;;;;;5035620;28;19917;-77
2023/07/12 03:28:19;;;;;;;;;;;17.20;99.90;;;;;;5034094;28;20284;-76
2023/07/12 03:30:56;;;;;;;;;;;17.20;99.90;;;;;;5034031;28;19928;-76
2023/07/12 03:33:21;;;;;;;;;;;17.10;99.90;;;;;;5034898;28;20336;-74
2023/07/12 03:35:49;;;;;;;;;;;17.10;99.90;;;;;;5033733;28;19971;-76
2023/07/12 03:38:15;;;;;;;;;;;17.10;99.90;;;;;;5034308;28;20337;-77
2023/07/12 03:40:40;;;;;;;;;;;17.10;99.90;;;;;;5035284;28;19960;-76
2023/07/12 03:43:06;;;;;;;;;;;17.10;99.90;;;;;;5034104;28;19928;-76
2023/07/12 03:45:31;;;;;;;;;;;17.00;99.90;;;;;;5034015;28;20280;-76
2023/07/12 03:47:57;;;;;;;;;;;17.00;99.90;;;;;;5033734;28;20423;-75
2023/07/12 03:50:22;;;;;;;;;;;17.00;99.90;;;;;;5033644;28;19917;-76
2023/07/12 03:52:48;;;;;;;;;;;17.10;99.90;;;;;;5034846;28;19917;-75
2023/07/12 03:55:13;;;;;;;;;;;17.00;99.90;;;;;;5034807;28;19960;-75
2023/07/12 03:57:41;;;;;;;;;;;17.00;99.90;;;;;;5033851;28;19943;-76
2023/07/12 04:00:08;;;;;;;;;;;17.00;99.90;;;;;;5017176;28;19917;-77
2023/07/12 04:02:34;;;;;;;;;;;17.00;99.90;;;;;;5034633;28;19963;-76
2023/07/12 04:05:00;;;;;;;;;;;17.00;99.90;;;;;;5033766;28;19917;-76
2023/07/12 04:07:25;;;;;;;;;;;17.00;99.90;;;;;;5033384;28;19925;-75
2023/07/12 04:09:51;;;;;;;;;;;17.00;99.90;;;;;;5033373;28;19932;-76
2023/07/12 04:12:17;;;;;;;;;;;17.00;99.90;;;;;;5033016;28;20280;-76
2023/07/12 04:14:42;;;;;;;;;;;17.00;99.90;;;;;;5034441;28;20424;-76
2023/07/12 04:17:09;;;;;;;;;;;17.00;99.90;;;;;;5033129;28;19917;-76
2023/07/12 04:19:34;;;;;;;;;;;17.00;99.90;;;;;;5034431;28;19917;-75
2023/07/12 04:22:00;;;;;;;;;;;17.00;99.90;;;;;;5033033;28;19917;-75
2023/07/12 04:24:25;;;;;;;;;;;17.00;99.90;;;;;;5034333;28;19941;-77
2023/07/12 04:26:51;;;;;;;;;;;17.00;99.90;;;;;;5032929;28;19928;-76
2023/07/12 04:29:16;;;;;;;;;;;17.00;99.90;;;;;;5034237;28;19917;-76
2023/07/12 04:31:42;;;;;;;;;;;17.00;99.90;;;;;;5034340;28;19917;-76
2023/07/12 04:34:07;;;;;;;;;;;17.00;99.90;;;;;;5034504;28;19939;-77
2023/07/12 04:36:33;;;;;;;;;;;17.00;99.90;;;;;;5034352;28;20374;-75
2023/07/12 04:38:58;;;;;;;;;;;17.00;99.90;;;;;;5033190;28;19917;-77
2023/07/12 04:41:24;;;;;;;;;;;17.00;99.90;;;;;;5033071;28;19917;-76
2023/07/12 04:43:50;;;;;;;;;;;17.00;99.90;;;;;;5032748;28;19917;-76
2023/07/12 04:46:16;;;;;;;;;;;17.00;99.90;;;;;;5033884;28;19921;-76
2023/07/12 04:48:41;;;;;;;;;;;17.00;99.90;;;;;;5032723;28;19921;-74
2023/07/12 04:51:07;;;;;;;;;;;17.00;99.90;;;;;;5016148;28;19970;-76
2023/07/12 04:53:33;;;;;;;;;;;17.00;99.90;;;;;;5032656;28;19917;-75
2023/07/12 04:55:59;;;;;;;;;;;17.00;99.90;;;;;;5032954;28;19978;-76
2023/07/12 04:58:26;;;;;;;;;;;17.00;99.90;;;;;;5034156;28;20360;-76
2023/07/12 05:00:52;;;;;;;;;;;17.00;99.90;;;;;;5032372;28;20060;-75
2023/07/12 05:03:18;;;;;;;;;;;17.00;99.90;;;;;;5032506;28;19949;-76
2023/07/12 05:05:43;;;;;;;;;;;17.00;99.90;;;;;;5032554;28;19979;-76
2023/07/12 05:08:09;;;;;;;;;;;17.00;99.90;;;;;;5034326;28;19928;-77
2023/07/12 05:10:35;;;;;;;;;;;17.10;99.90;;;;;;5032799;28;20008;-75
2023/07/12 05:13:01;;;;;;;;;;;17.10;99.90;;;;;;5032424;28;19917;-76
2023/07/12 05:15:27;;;;;;;;;;;17.10;99.90;;;;;;5032411;28;19917;-75
2023/07/12 05:17:52;;;;;;;;;;;17.20;99.90;;;;;;5032378;28;19971;-76
2023/07/12 05:20:18;;;;;;;;;;;17.10;99.90;;;;;;5015870;28;19923;-75
2023/07/12 05:22:44;;;;;;;;;;;17.10;99.90;;;;;;5032182;28;20280;-76
2023/07/12 05:25:10;;;;;;;;;;;17.20;99.90;;;;;;5035368;28;19924;-78
2023/07/12 05:27:36;;;;;;;;;;;17.20;99.90;;;;;;5036354;28;19925;-78
2023/07/12 05:30:01;;;;;;;;;;;17.10;99.90;;;;;;5036243;28;20003;-75
2023/07/12 05:32:27;;;;;;;;;;;17.20;99.90;;;;;;5036153;28;19917;-76
2023/07/12 05:34:52;;;;;;;;;;;17.20;99.90;;;;;;5036446;28;19917;-76
2023/07/12 05:37:18;;;;;;;;;;;17.20;99.90;;;;;;5036608;28;20341;-75
2023/07/12 05:39:43;;;;;;;;;;;17.20;99.90;;;;;;5036518;28;20011;-76
2023/07/12 05:42:09;;;;;;;;;;;17.20;99.90;;;;;;5036177;28;19962;-75
2023/07/12 05:44:34;;;;;;;;;;;17.20;99.90;;;;;;5035987;28;19917;-74
2023/07/12 05:47:00;;;;;;;;;;;17.30;99.90;;;;;;5036009;28;19921;-77
2023/07/12 05:49:26;;;;;;;;;;;17.30;99.90;;;;;;5035951;28;19921;-77
2023/07/12 05:51:52;;;;;;;;;;;17.30;99.90;;;;;;5037266;28;19940;-75
2023/07/12 05:54:17;;;;;;;;;;;17.30;99.90;;;;;;5036131;28;19917;-77
2023/07/12 05:56:43;;;;;;;;;;;17.20;99.90;;;;;;5035786;28;19941;-76
2023/07/12 05:59:09;;;;;;;;;;;17.30;99.90;;;;;;5035961;28;19917;-78
2023/07/12 06:01:35;;;;;;;;;;;17.20;99.90;;;;;;5036980;28;20003;-75
2023/07/12 06:04:00;;;;;;;;;;;17.20;99.90;;;;;;5037212;28;19968;-77
2023/07/12 06:06:26;;;;;;;;;;;17.20;99.90;;;;;;5036797;28;19928;-76
2023/07/12 06:08:51;;;;;;;;;;;17.10;99.90;;;;;;5037088;28;19916;-75
2023/07/12 06:11:17;;;;;;;;;;;17.00;99.90;;;;;;5019016;28;19920;-74
2023/07/12 06:13:42;;;;;;;;;;;17.00;99.90;;;;;;5035381;28;19962;-76
2023/07/12 06:16:08;;;;;;;;;;;17.00;99.90;;;;;;5035476;28;19917;-76
2023/07/12 06:18:33;;;;;;;;;;;17.00;99.90;;;;;;5035387;28;20007;-75
2023/07/12 06:21:00;;;;;;;;;;;17.00;99.90;;;;;;5035814;28;19917;-77
2023/07/12 06:23:26;;;;;;;;;;;17.00;99.90;;;;;;5035664;28;19924;-76
2023/07/12 06:25:51;;;;;;;;;;;17.00;99.90;;;;;;5035292;28;19963;-76
2023/07/12 06:28:17;;;;;;;;;;;17.10;99.90;;;;;;5035152;28;19920;-77
2023/07/12 06:30:43;;;;;;;;;;;17.10;99.90;;;;;;5035061;28;19917;-76
2023/07/12 06:33:09;;;;;;;;;;;17.10;99.90;;;;;;5035334;28;20069;-76
2023/07/12 06:35:35;;;;;;;;;;;17.10;99.90;;;;;;5035057;28;20261;-76
2023/07/12 06:38:00;;;;;;;;;;;17.20;99.90;;;;;;5036253;28;19923;-76
2023/07/12 06:40:26;;;;;;;;;;;17.20;99.90;;;;;;5018528;28;19935;-76
2023/07/12 06:42:51;;;;;;;;;;;17.30;99.90;;;;;;5034940;28;19917;-76
2023/07/12 06:45:17;;;;;;;;;;;17.30;99.90;;;;;;5035019;28;20025;-76
2023/07/12 06:47:42;;;;;;;;;;;17.40;99.90;;;;;;5034815;28;19928;-75
2023/07/12 06:50:08;;;;;;;;;;;17.40;99.90;;;;;;5034971;28;19917;-75
2023/07/12 06:52:34;;;;;;;;;;;17.40;99.90;;;;;;5035101;28;19924;-76
2023/07/12 06:54:59;;;;;;;;;;;17.40;99.90;;;;;;5018556;28;20364;-75
2023/07/12 06:57:25;;;;;;;;;;;17.50;99.90;;;;;;5034992;28;20276;-76
2023/07/12 06:59:50;;;;;;;;;;;17.50;99.90;;;;;;5034972;28;20345;-76
2023/07/12 07:02:16;;;;;;;;;;;17.50;99.90;;;;;;5034678;28;20353;-76
2023/07/12 07:04:41;;;;;;;;;;;17.70;99.90;;;;;;5034545;28;19917;-74
2023/07/12 07:07:07;;;;;;;;;;;17.70;99.90;;;;;;5034409;28;19944;-76
2023/07/12 07:09:38;;;;;;;;;;;17.70;99.90;;;;;;5034427;28;19924;-77
2023/07/12 07:12:04;;;;;;;;;;;17.80;99.90;;;;;;5036495;28;19917;-75
2023/07/12 07:14:30;;;;;;;;;;;17.90;99.90;;;;;;5034390;28;19963;-75
2023/07/12 07:16:55;;;;;;;;;;;17.90;99.90;;;;;;5035797;28;19960;-75
2023/07/12 07:19:21;;;;;;;;;;;18.00;99.90;;;;;;5035548;28;19952;-75
2023/07/12 07:21:47;;;;;;;;;;;18.00;99.90;;;;;;5035639;28;19924;-76
2023/07/12 07:24:13;;;;;;;;;;;18.00;99.90;;;;;;5034546;28;19920;-77
2023/07/12 07:26:39;;;;;;;;;;;18.00;99.90;;;;;;5034017;28;19990;-75
2023/07/12 07:29:04;;;;;;;;;;;18.00;99.90;;;;;;5033984;28;20004;-76
2023/07/12 07:31:30;;;;;;;;;;;17.90;99.90;;;;;;5035509;28;19995;-76
2023/07/12 07:33:55;;;;;;;;;;;17.90;99.90;;;;;;5034041;28;20354;-75
2023/07/12 07:36:21;;;;;;;;;;;17.80;99.90;;;;;;5034232;28;19921;-75
2023/07/12 07:38:46;;;;;;;;;;;17.60;99.90;;;;;;5034174;28;19925;-77
2023/07/12 07:41:14;;;;;;;;;;;17.60;99.90;;;;;;5035826;28;20357;-77
2023/07/12 07:43:40;;;;;;;;;;;17.50;99.90;;;;;;5035140;28;20055;-78
2023/07/12 07:46:09;;;;;;;;;;;17.60;99.90;;;;;;5036160;28;19963;-76
2023/07/12 07:48:35;;;;;;;;;;;17.60;99.90;;;;;;5034874;28;19922;-77
2023/07/12 07:51:01;;;;;;;;;;;17.70;99.90;;;;;;5035862;28;20264;-75
2023/07/12 07:53:26;;;;;;;;;;;17.80;99.90;;;;;;5034173;28;19999;-76
2023/07/12 07:55:52;;;;;;;;;;;17.90;99.90;;;;;;5033986;28;20349;-75
2023/07/12 07:58:18;;;;;;;;;;;17.90;99.90;;;;;;5033823;28;20369;-77
2023/07/12 08:00:44;;;;;;;;;;;17.90;99.90;;;;;;5034035;28;19920;-75
2023/07/12 08:03:11;;;;;;;;;;;17.80;99.90;;;;;;5033977;28;20457;-75
2023/07/12 08:05:37;;;;;;;;;;;17.80;99.90;;;;;;5033386;28;19921;-76
2023/07/12 08:08:02;;;;;;;;;;;17.70;99.90;;;;;;5033313;28;19921;-76
2023/07/12 08:10:29;;;;;;;;;;;17.70;99.90;;;;;;5034534;28;20333;-77
2023/07/12 08:12:56;;;;;;;;;;;17.70;99.90;;;;;;5033283;28;20007;-75
2023/07/12 08:15:22;;;;;;;;;;;17.70;99.90;;;;;;5034537;28;19921;-76
2023/07/12 08:17:48;;;;;;;;;;;17.80;99.90;;;;;;5033205;28;19966;-76
2023/07/12 08:20:13;;;;;;;;;;;17.80;99.90;;;;;;5033137;28;19964;-75
2023/07/12 08:22:39;;;;;;;;;;;17.80;99.90;;;;;;5034657;28;19968;-76
2023/07/12 08:25:04;;;;;;;;;;;17.80;99.90;;;;;;5033100;28;19964;-76
2023/07/12 08:27:33;;;;;;;;;;;17.90;99.90;;;;;;5034263;28;19921;-77
2023/07/12 08:29:59;;;;;;;;;;;17.90;99.90;;;;;;5034296;28;19917;-75
2023/07/12 08:32:27;;;;;;;;;;;17.90;99.90;;;;;;5032950;28;19917;-77
2023/07/12 08:34:54;;;;;;;;;;;17.90;99.90;;;;;;5033291;28;19964;-75
2023/07/12 08:37:20;;;;;;;;;;;17.90;99.90;;;;;;5032922;28;19924;-76
2023/07/12 08:39:45;;;;;;;;;;;17.90;99.90;;;;;;5033125;28;19999;-74
2023/07/12 08:42:13;;;;;;;;;;;17.70;99.90;;;;;;5032773;28;20291;-77
2023/07/12 08:44:38;;;;;;;;;;;17.60;99.90;;;;;;5032753;28;19967;-78
2023/07/12 08:47:05;;;;;;;;;;;17.40;99.90;;;;;;5032637;28;19921;-79
2023/07/12 08:49:30;;;;;;;;;;;17.30;99.90;;;;;;5034234;28;19917;-78
2023/07/12 08:52:01;;;;;;;;;;;17.20;99.90;;;;;;5032836;28;19987;-78
2023/07/12 08:54:34;;;;;;;;;;;17.10;99.90;;;;;;5034127;28;20004;-77
2023/07/12 08:57:14;;;;;;;;;;;17.10;99.90;;;;;;5034349;28;19917;-76
2023/07/12 08:59:40;;;;;;;;;;;17.30;99.90;;;;;;5032990;28;19921;-76
2023/07/12 09:02:15;;;;;;;;;;;17.40;99.90;;;;;;5032349;28;19928;-76
2023/07/12 09:04:40;;;;;;;;;;;17.40;99.90;;;;;;5016121;28;19917;-76
2023/07/12 09:07:07;;;;;;;;;;;17.40;99.90;;;;;;5032310;28;20269;-76
2023/07/12 09:09:37;;;;;;;;;;;17.50;99.90;;;;;;5032343;28;19917;-75
2023/07/12 09:12:05;;;;;;;;;;;17.50;99.90;;;;;;5032638;28;20292;-76
2023/07/12 09:14:34;;;;;;;;;;;17.60;99.90;;;;;;5032438;28;19920;-76
2023/07/12 09:16:59;;;;;;;;;;;17.70;99.90;;;;;;5032353;28;19916;-76
2023/07/12 09:19:31;;;;;;;;;;;17.80;99.90;;;;;;5032526;28;20287;-75
2023/07/12 09:21:58;;;;;;;;;;;18.00;99.90;;;;;;5032291;28;20429;-76
2023/07/12 09:24:30;;;;;;;;;;;18.00;99.90;;;;;;5032196;28;19917;-77
2023/07/12 09:27:06;;;;;;;;;;;18.20;99.90;;;;;;5032327;28;20015;-76
2023/07/12 09:29:35;;;;;;;;;;;18.30;99.90;;;;;;5032456;28;20052;-76
2023/07/12 09:32:01;;;;;;;;;;;18.50;99.90;;;;;;5032063;28;19925;-77
2023/07/12 09:34:33;;;;;;;;;;;18.60;99.90;;;;;;5032087;28;19917;-78
2023/07/12 09:36:59;;;;;;;;;;;18.80;99.90;;;;;;5033229;28;19924;-76
2023/07/12 09:39:28;;;;;;;;;;;18.90;99.90;;;;;;5033482;28;19917;-77
2023/07/12 09:41:55;;;;;;;;;;;19.10;99.90;;;;;;5032360;28;19917;-79
2023/07/12 09:44:20;;;;;;;;;;;19.10;99.90;;;;;;5033390;28;19942;-76
2023/07/12 09:47:07;;;;;;;;;;;19.20;99.90;;;;;;5033205;28;19929;-77
2023/07/12 09:49:37;;;;;;;;;;;19.20;99.90;;;;;;5016118;28;20300;-77
2023/07/12 09:52:09;;;;;;;;;;;19.30;99.90;;;;;;5015476;28;20365;-78
2023/07/12 09:54:53;;;;;;;;;;;19.40;99.90;;;;;;5031940;28;19917;-77
2023/07/12 09:57:37;;;;;;;;;;;19.40;99.90;;;;;;5015791;28;19964;-78
2023/07/12 10:00:21;;;;;;;;;;;19.50;99.90;;;;;;5033452;28;19917;-75
2023/07/12 10:02:53;;;;;;;;;;;19.70;99.90;;;;;;5031899;28;19917;-77
2023/07/12 10:05:19;;;;;;;;;;;19.80;99.90;;;;;;5032273;28;19924;-79
2023/07/12 10:07:58;;;;;;;;;;;19.90;99.90;;;;;;5031941;28;20284;-75
2023/07/12 10:10:26;;;;;;;;;;;19.80;99.90;;;;;;5034220;28;20014;-75
2023/07/12 10:13:01;;;;;;;;;;;19.70;99.90;;;;;;5035435;28;19917;-77
2023/07/12 10:15:28;;;;;;;;;;;19.50;99.90;;;;;;5035329;28;19928;-77
2023/07/12 10:17:54;;;;;;;;;;;19.50;99.90;;;;;;5036866;28;19917;-78
2023/07/12 10:20:21;;;;;;;;;;;19.60;99.90;;;;;;5035284;28;20279;-78
2023/07/12 10:22:47;;;;;;;;;;;19.70;99.90;;;;;;5036624;28;20331;-77
2023/07/12 10:25:34;;;;;;;;;;;19.90;99.90;;;;;;5035268;28;19925;-76
2023/07/12 10:28:14;;;;;;;;;;;20.20;99.90;;;;;;5036392;28;19929;-77
2023/07/12 10:30:40;;;;;;;;;;;20.30;99.90;;;;;;5035552;28;19920;-77
2023/07/12 10:33:14;;;;;;;;;;;20.40;99.90;;;;;;5036768;28;20441;-78
2023/07/12 10:35:51;;;;;;;;;;;20.50;99.90;;;;;;5035337;28;19917;-77
2023/07/12 10:38:18;;;;;;;;;;;20.70;99.90;;;;;;5035078;28;19971;-77
2023/07/12 10:41:05;;;;;;;;;;;20.90;99.90;;;;;;5035253;28;19917;-76
2023/07/12 10:43:33;;;;;;;;;;;20.90;99.90;;;;;;5034972;28;19923;-75
2023/07/12 10:46:02;;;;;;;;;;;20.90;99.90;;;;;;5036122;28;19917;-77
2023/07/12 10:48:28;;;;;;;;;;;21.00;99.90;;;;;;5036401;28;19921;-78
2023/07/12 10:50:56;;;;;;;;;;;21.00;99.90;;;;;;5035922;28;19924;-76
2023/07/12 10:53:23;;;;;;;;;;;21.10;99.90;;;;;;5036065;28;19921;-79
2023/07/12 10:56:07;;;;;;;;;;;21.20;99.90;;;;;;5037804;28;20365;-79
2023/07/12 10:58:48;;;;;;;;;;;21.30;99.90;;;;;;5038328;28;20380;-76
2023/07/12 11:01:32;;;;;;;;;;;21.30;99.90;;;;;;5037563;28;19923;-75
2023/07/12 11:04:04;;;;;;;;;;;21.40;99.90;;;;;;5018453;28;19924;-78
2023/07/12 11:06:32;;;;;;;;;;;21.30;99.90;;;;;;5036204;28;19917;-75
2023/07/12 11:08:58;;;;;;;;;;;21.20;99.90;;;;;;5034731;28;19917;-79
2023/07/12 11:11:30;;;;;;;;;;;21.40;99.90;;;;;;5035761;28;19924;-79
2023/07/12 11:14:22;;;;;;;;;;;21.40;99.90;;;;;;5034352;28;20376;-76
2023/07/12 11:16:51;;;;;;;;;;;21.50;99.90;;;;;;5004396;28;20319;-77
2023/07/12 11:19:31;;;;;;;;;;;21.60;99.90;;;;;;5035523;28;20051;-78
2023/07/12 11:22:01;;;;;;;;;;;21.60;99.90;;;;;;5033049;28;20020;-77
2023/07/12 11:24:26;;;;;;;;;;;21.50;99.90;;;;;;5034007;28;20265;-77
2023/07/12 11:26:57;;;;;;;;;;;21.60;99.90;;;;;;5033939;28;19928;-76
2023/07/12 11:29:32;;;;;;;;;;;21.60;99.90;;;;;;5034089;28;19916;-79
2023/07/12 11:32:13;;;;;;;;;;;21.40;99.90;;;;;;5034332;28;19917;-76
2023/07/12 11:34:40;;;;;;;;;;;21.50;99.90;;;;;;5033918;28;19924;-76
2023/07/12 11:37:14;;;;;;;;;;;21.60;99.90;;;;;;5017500;28;19917;-77
2023/07/12 11:39:43;;;;;;;;;;;21.70;99.90;;;;;;5033971;28;19968;-78
2023/07/12 11:42:20;;;;;;;;;;;21.90;99.90;;;;;;5017512;28;19952;-79
2023/07/12 11:44:57;;;;;;;;;;;21.80;99.90;;;;;;5033855;28;20019;-77
2023/07/12 11:47:23;;;;;;;;;;;21.50;99.90;;;;;;5034104;28;19928;-75
2023/07/12 11:49:54;;;;;;;;;;;21.60;99.90;;;;;;5035206;28;20304;-77
2023/07/12 11:52:19;;;;;;;;;;;21.60;99.90;;;;;;5034984;28;19962;-75
2023/07/12 11:54:45;;;;;;;;;;;21.60;99.90;;;;;;5033638;28;20390;-77
2023/07/12 11:57:11;;;;;;;;;;;21.60;99.90;;;;;;5033621;28;19921;-78
2023/07/12 11:59:39;;;;;;;;;;;21.50;99.90;;;;;;5033781;28;19917;-74
2023/07/12 12:02:10;;;;;;;;;;;21.50;99.90;;;;;;5016843;28;19924;-77
2023/07/12 12:04:36;;;;;;;;;;;21.40;99.90;;;;;;5033779;28;19932;-77
2023/07/12 12:07:03;;;;;;;;;;;21.30;99.90;;;;;;5034099;28;20375;-77
2023/07/12 12:09:30;;;;;;;;;;;21.40;99.90;;;;;;5033319;28;19967;-77
2023/07/12 12:11:57;;;;;;;;;;;21.60;99.90;;;;;;5033411;28;20345;-76
2023/07/12 12:14:27;;;;;;;;;;;21.70;99.90;;;;;;5033176;28;19968;-76
2023/07/12 12:16:54;;;;;;;;;;;21.80;99.90;;;;;;5017298;28;20371;-78
2023/07/12 12:19:21;;;;;;;;;;;22.10;99.90;;;;;;5033174;28;19970;-75
2023/07/12 12:21:51;;;;;;;;;;;22.30;99.90;;;;;;5033312;28;19968;-76
2023/07/12 12:24:18;;;;;;;;;;;22.30;99.90;;;;;;5033118;28;19951;-75
2023/07/12 12:26:44;;;;;;;;;;;22.40;99.90;;;;;;5034861;28;20003;-75
2023/07/12 12:29:19;;;;;;;;;;;22.50;99.90;;;;;;5033268;28;20034;-76
2023/07/12 12:32:03;;;;;;;;;;;22.50;99.90;;;;;;5032918;28;20431;-78
2023/07/12 12:34:37;;;;;;;;;;;22.60;99.90;;;;;;5033840;28;20011;-74
2023/07/12 12:37:05;;;;;;;;;;;22.50;99.90;;;;;;5034154;28;19971;-76
2023/07/12 12:39:31;;;;;;;;;;;22.50;99.90;;;;;;5033135;28;20277;-75
2023/07/12 12:42:00;;;;;;;;;;;22.50;99.90;;;;;;5032772;28;19921;-77
2023/07/12 12:44:27;;;;;;;;;;;22.50;99.90;;;;;;5034290;28;19968;-75
2023/07/12 12:46:54;;;;;;;;;;;22.60;99.90;;;;;;5032733;28;19925;-76
2023/07/12 12:49:25;;;;;;;;;;;22.60;99.90;;;;;;5032704;28;19917;-77
2023/07/12 12:51:52;;;;;;;;;;;22.60;99.90;;;;;;5032570;28;19961;-77
2023/07/12 12:54:17;;;;;;;;;;;22.60;99.90;;;;;;5033907;28;19923;-77
2023/07/12 12:56:44;;;;;;;;;;;22.50;99.90;;;;;;5032557;28;20011;-78
2023/07/12 12:59:10;;;;;;;;;;;22.60;99.90;;;;;;5032691;28;19925;-77
2023/07/12 13:01:35;;;;;;;;;;;22.60;99.90;;;;;;5032393;28;19917;-74
2023/07/12 13:04:01;;;;;;;;;;;22.50;99.90;;;;;;5034279;28;20059;-75
2023/07/12 13:06:27;;;;;;;;;;;22.40;99.90;;;;;;5032443;28;19917;-75
2023/07/12 13:08:53;;;;;;;;;;;22.40;99.90;;;;;;5032465;28;19921;-79
2023/07/12 13:11:18;;;;;;;;;;;22.40;99.90;;;;;;5032433;28;19924;-79
2023/07/12 13:13:44;;;;;;;;;;;22.70;99.90;;;;;;5032735;28;20011;-76
2023/07/12 13:16:17;;;;;;;;;;;22.70;99.90;;;;;;5016043;28;20383;-75
2023/07/12 13:18:43;;;;;;;;;;;22.60;99.90;;;;;;5032545;28;19924;-79
2023/07/12 13:21:35;;;;;;;;;;;22.70;99.90;;;;;;5032547;28;19932;-74
2023/07/12 13:24:00;;;;;;;;;;;22.80;99.90;;;;;;5028710;28;19924;-77
2023/07/12 13:26:26;;;;;;;;;;;22.40;99.90;;;;;;5032262;28;19921;-77
2023/07/12 13:28:51;;;;;;;;;;;22.30;99.90;;;;;;5033561;28;19988;-76
2023/07/12 13:31:19;;;;;;;;;;;22.30;99.90;;;;;;5032078;28;20004;-76
2023/07/12 13:33:45;;;;;;;;;;;22.20;99.90;;;;;;5032252;28;19921;-77
2023/07/12 13:36:24;;;;;;;;;;;22.10;99.90;;;;;;5032443;28;19917;-76
2023/07/12 13:38:50;;;;;;;;;;;22.00;99.90;;;;;;5033923;28;19964;-76
2023/07/12 13:41:15;;;;;;;;;;;22.00;99.90;;;;;;5033376;28;19940;-77
2023/07/12 13:43:41;;;;;;;;;;;22.10;99.90;;;;;;5033319;28;20403;-76
2023/07/12 13:46:12;;;;;;;;;;;22.20;99.90;;;;;;5035173;28;20011;-76
2023/07/12 13:48:38;;;;;;;;;;;22.30;99.90;;;;;;5037049;28;19921;-75
2023/07/12 13:51:04;;;;;;;;;;;22.30;99.90;;;;;;5035867;28;19921;-73
2023/07/12 13:53:30;;;;;;;;;;;22.50;99.90;;;;;;5037439;28;19970;-78
2023/07/12 13:55:55;;;;;;;;;;;22.50;99.90;;;;;;5037020;28;20308;-78
2023/07/12 13:58:21;;;;;;;;;;;22.50;99.90;;;;;;5035722;28;19994;-77
2023/07/12 14:00:48;;;;;;;;;;;22.50;99.90;;;;;;5036905;28;20331;-76
2023/07/12 14:03:13;;;;;;;;;;;22.40;99.90;;;;;;5037017;28;19917;-73
2023/07/12 14:05:39;;;;;;;;;;;22.40;99.90;;;;;;5035932;28;20285;-77
2023/07/12 14:08:05;;;;;;;;;;;22.40;99.90;;;;;;5035595;28;19928;-77
2023/07/12 14:10:30;;;;;;;;;;;22.10;99.90;;;;;;5035426;28;20004;-77
2023/07/12 14:12:56;;;;;;;;;;;22.30;99.90;;;;;;5036814;28;19921;-73
2023/07/12 14:15:23;;;;;;;;;;;22.30;99.90;;;;;;5036787;28;20288;-77
2023/07/12 14:17:50;;;;;;;;;;;22.30;99.90;;;;;;5035522;28;19921;-75
2023/07/12 14:20:15;;;;;;;;;;;22.20;99.90;;;;;;5035727;28;19916;-77
2023/07/12 14:22:44;;;;;;;;;;;22.20;99.90;;;;;;5036726;28;20356;-76
2023/07/12 14:25:14;;;;;;;;;;;22.10;99.90;;;;;;5036963;28;19917;-77
2023/07/12 14:27:40;;;;;;;;;;;22.00;99.90;;;;;;5035310;28;19921;-76
2023/07/12 14:30:06;;;;;;;;;;;22.00;99.90;;;;;;5035053;28;20015;-77
2023/07/12 14:32:33;;;;;;;;;;;21.80;99.90;;;;;;5035281;28;19920;-78
2023/07/12 14:35:01;;;;;;;;;;;22.00;99.90;;;;;;5036577;28;19921;-76
2023/07/12 14:37:26;;;;;;;;;;;22.00;99.90;;;;;;5035026;28;19921;-76
2023/07/12 14:39:52;;;;;;;;;;;21.90;99.90;;;;;;5036457;28;19917;-74
2023/07/12 14:42:21;;;;;;;;;;;22.00;99.90;;;;;;5036150;28;20269;-76
2023/07/12 14:44:47;;;;;;;;;;;22.00;99.90;;;;;;5035154;28;20268;-75
2023/07/12 14:47:14;;;;;;;;;;;22.30;99.90;;;;;;5034720;28;19921;-77
2023/07/12 14:49:39;;;;;;;;;;;22.20;99.90;;;;;;5036029;28;20372;-75
2023/07/12 14:52:22;;;;;;;;;;;22.00;99.90;;;;;;5036243;28;20016;-78
2023/07/12 14:54:48;;;;;;;;;;;22.00;99.90;;;;;;5036023;28;19996;-77
2023/07/12 14:57:14;;;;;;;;;;;22.20;99.90;;;;;;5035881;28;20280;-75
2023/07/12 14:59:40;;;;;;;;;;;22.20;99.90;;;;;;5034651;28;19924;-76
2023/07/12 15:02:36;;;;;;;;;;;22.40;99.90;;;;;;5034690;28;19916;-74
2023/07/12 15:05:03;;;;;;;;;;;22.40;99.90;;;;;;5032895;28;19917;-75
2023/07/12 15:07:33;;;;;;;;;;;22.40;99.90;;;;;;5034580;28;20288;-76
2023/07/12 15:10:00;;;;;;;;;;;22.50;99.90;;;;;;5034733;28;19917;-74
2023/07/12 15:12:45;;;;;;;;;;;22.40;99.90;;;;;;5034199;28;19924;-76
2023/07/12 15:15:22;;;;;;;;;;;22.20;99.90;;;;;;5034227;28;19916;-75
2023/07/12 15:17:50;;;;;;;;;;;21.80;99.90;;;;;;5017785;28;20415;-77
2023/07/12 15:20:16;;;;;;;;;;;21.90;99.90;;;;;;5034193;28;19953;-76
2023/07/12 15:22:43;;;;;;;;;;;22.00;99.90;;;;;;5036146;28;19928;-79
2023/07/12 15:25:19;;;;;;;;;;;22.20;99.90;;;;;;5034228;28;19996;-77
2023/07/12 15:27:45;;;;;;;;;;;22.20;99.90;;;;;;5034300;28;19944;-74
2023/07/12 15:30:14;;;;;;;;;;;22.30;99.90;;;;;;5034442;28;19917;-73
2023/07/12 15:32:40;;;;;;;;;;;22.20;99.90;;;;;;5035273;28;19924;-74
2023/07/12 15:35:16;;;;;;;;;;;22.20;99.90;;;;;;5017834;28;19956;-77
2023/07/12 15:37:42;;;;;;;;;;;22.30;99.90;;;;;;5033938;28;19917;-76
2023/07/12 15:40:08;;;;;;;;;;;22.30;99.90;;;;;;5034167;28;19967;-76
2023/07/12 15:42:34;;;;;;;;;;;22.30;99.90;;;;;;5034053;28;19939;-75
2023/07/12 15:44:59;;;;;;;;;;;22.20;99.90;;;;;;5035086;28;19916;-75
2023/07/12 15:47:25;;;;;;;;;;;22.20;99.90;;;;;;5035530;28;20432;-75
2023/07/12 15:49:50;;;;;;;;;;;22.30;99.90;;;;;;5034885;28;20008;-74
2023/07/12 15:52:17;;;;;;;;;;;22.30;99.90;;;;;;5033941;28;19921;-76
2023/07/12 15:54:43;;;;;;;;;;;22.20;99.90;;;;;;5033960;28;20328;-76
2023/07/12 15:57:09;;;;;;;;;;;22.30;99.90;;;;;;5017255;28;19917;-77
2023/07/12 15:59:35;;;;;;;;;;;22.30;99.90;;;;;;5033599;28;19917;-75
2023/07/12 16:02:00;;;;;;;;;;;22.30;99.90;;;;;;5033511;28;19917;-76
2023/07/12 16:04:26;;;;;;;;;;;22.40;99.90;;;;;;5034991;28;20309;-74
2023/07/12 16:06:51;;;;;;;;;;;22.40;99.90;;;;;;5034923;28;19923;-78
2023/07/12 16:09:17;;;;;;;;;;;22.20;99.90;;;;;;5034240;28;19978;-74
2023/07/12 16:11:46;;;;;;;;;;;22.20;99.90;;;;;;5033629;28;20234;-76
2023/07/12 16:14:18;;;;;;;;;;;22.20;99.90;;;;;;5033648;28;19924;-78
2023/07/12 16:16:44;;;;;;;;;;;22.30;99.90;;;;;;5033548;28;20015;-76
2023/07/12 16:19:10;;;;;;;;;;;22.30;99.90;;;;;;5033122;28;20406;-76
2023/07/12 16:21:37;;;;;;;;;;;22.10;99.90;;;;;;5016645;28;20431;-77
2023/07/12 16:24:04;;;;;;;;;;;22.10;99.90;;;;;;5033171;28;20297;-77
2023/07/12 16:26:32;;;;;;;;;;;22.10;99.90;;;;;;5034366;28;19967;-74
2023/07/12 16:28:58;;;;;;;;;;;22.00;99.90;;;;;;5032967;28;19921;-75
2023/07/12 16:31:24;;;;;;;;;;;22.20;99.90;;;;;;5033132;28;19917;-79
2023/07/12 16:33:54;;;;;;;;;;;22.20;99.90;;;;;;5033477;28;19967;-75
2023/07/12 16:36:20;;;;;;;;;;;22.00;99.90;;;;;;5032954;28;19917;-77
2023/07/12 16:38:45;;;;;;;;;;;21.90;99.90;;;;;;5034139;28;19917;-76
2023/07/12 16:41:13;;;;;;;;;;;21.90;99.90;;;;;;5032685;28;19917;-76
2023/07/12 16:43:39;;;;;;;;;;;21.80;99.90;;;;;;5034029;28;19966;-74
2023/07/12 16:46:04;;;;;;;;;;;21.80;99.90;;;;;;5034053;28;19917;-77
2023/07/12 16:48:30;;;;;;;;;;;21.90;99.90;;;;;;5033806;28;19929;-76
2023/07/12 16:50:55;;;;;;;;;;;21.80;99.90;;;;;;5032818;28;19924;-75
2023/07/12 16:53:34;;;;;;;;;;;21.80;99.90;;;;;;5034033;28;19921;-74
2023/07/12 16:56:04;;;;;;;;;;;21.80;99.90;;;;;;5036932;28;19918;-77
2023/07/12 16:58:30;;;;;;;;;;;21.80;99.90;;;;;;5036194;28;20003;-76
2023/07/12 17:00:57;;;;;;;;;;;21.90;99.90;;;;;;5034869;28;20025;-76
2023/07/12 17:03:23;;;;;;;;;;;22.00;99.90;;;;;;5032847;28;19921;-78
2023/07/12 17:05:49;;;;;;;;;;;21.80;99.90;;;;;;5033299;28;19917;-76
2023/07/12 17:08:17;;;;;;;;;;;21.70;99.90;;;;;;5035159;28;20280;-77
2023/07/12 17:10:42;;;;;;;;;;;21.70;99.90;;;;;;5033667;28;19917;-71
2023/07/12 17:13:10;;;;;;;;;;;21.70;99.90;;;;;;5032966;28;19924;-78
2023/07/12 17:15:35;;;;;;;;;;;21.60;99.90;;;;;;5032481;28;20008;-73
2023/07/12 17:18:02;;;;;;;;;;;21.60;99.90;;;;;;5016013;28;19960;-74
2023/07/12 17:20:30;;;;;;;;;;;21.60;99.90;;;;;;5034977;28;19917;-77